Terminal Aerodrome Forecast
Issued by NWS

Home | Current Version | Previous Version | Text Only | Print | Product List | Glossary On
Versions: 1 2 3 4 5 6 7 8 9 10 11 12 13 14
000
FTUS46 KSEW 281100
TAFBLI
TAF
KBLI 281120Z 2812/0112 02020G30KT P6SM SKC
     FM281500 02014G22KT P6SM SKC
     FM282100 02010KT P6SM SKC
     FM010300 01004KT P6SM SCT200=

USA.gov is the U.S. government's official web portal to all federal, state and local government web resources and services.